createdAt,value
2018-02-22T00:01:45.616Z,0.36
2018-02-22T00:04:11.856Z,0.34
2018-02-22T00:06:38.136Z,0.31
2018-02-22T00:09:04.469Z,0.36
2018-02-22T00:11:30.702Z,0.32
2018-02-22T00:13:56.975Z,0.28
2018-02-22T00:16:23.204Z,0.28
2018-02-22T00:18:49.496Z,0.27
2018-02-22T00:21:15.779Z,0.26
2018-02-22T00:23:42.007Z,0.25
2018-02-22T00:26:08.232Z,0.29
2018-02-22T00:28:34.580Z,0.27
2018-02-22T00:31:00.928Z,0.23
2018-02-22T00:33:27.170Z,0.19
2018-02-22T00:35:53.427Z,0.19
2018-02-22T00:38:19.662Z,0.17
2018-02-22T00:40:45.928Z,0.11
2018-02-22T00:43:12.199Z,0.10
2018-02-22T00:45:38.427Z,0.11
2018-02-22T00:48:04.669Z,0.11
2018-02-22T00:50:31.023Z,0.08
2018-02-22T00:52:57.299Z,0.06
2018-02-22T00:55:23.523Z,0.03
2018-02-22T00:57:49.776Z,0.02
2018-02-22T01:00:16.167Z,0.00
2018-02-22T01:02:42.411Z,-0.04
2018-02-22T01:05:08.675Z,-0.08
2018-02-22T01:07:34.912Z,0.01
2018-02-22T01:10:01.260Z,0.02
2018-02-22T01:12:27.524Z,-0.03
2018-02-22T01:14:53.773Z,-0.02
2018-02-22T01:17:20.017Z,-0.07
2018-02-22T01:19:46.432Z,-0.02
2018-02-22T01:22:12.655Z,-0.06
2018-02-22T01:24:38.911Z,-0.07
2018-02-22T01:27:05.192Z,-0.06
2018-02-22T01:29:31.552Z,0.00
2018-02-22T01:31:57.781Z,0.01
2018-02-22T01:34:24.044Z,-0.03
2018-02-22T01:36:50.283Z,-0.10
2018-02-22T01:39:16.636Z,-0.11
2018-02-22T01:41:42.910Z,-0.14
2018-02-22T01:44:09.161Z,-0.11
2018-02-22T01:46:35.399Z,-0.16
2018-02-22T01:49:01.849Z,-0.13
2018-02-22T01:51:28.080Z,-0.15
2018-02-22T01:53:54.315Z,-0.15
2018-02-22T01:56:20.573Z,-0.13
2018-02-22T01:58:47.003Z,-0.12
2018-02-22T02:01:13.255Z,-0.11
2018-02-22T02:03:39.512Z,-0.10
2018-02-22T02:06:05.748Z,-0.06
2018-02-22T02:08:32.235Z,-0.14
2018-02-22T02:10:58.493Z,-0.16
2018-02-22T02:13:24.768Z,-0.19
2018-02-22T02:15:50.998Z,-0.16
2018-02-22T02:18:17.444Z,-0.20
2018-02-22T02:20:43.767Z,-0.26
2018-02-22T02:23:09.967Z,-0.28
2018-02-22T02:25:36.226Z,-0.33
2018-02-22T02:28:07.638Z,-0.38
2018-02-22T02:30:33.872Z,-0.31
2018-02-22T02:33:00.159Z,-0.31
2018-02-22T02:35:26.395Z,-0.37
2018-02-22T02:37:52.761Z,-0.33
2018-02-22T02:40:19.037Z,-0.31
2018-02-22T02:42:45.273Z,-0.31
2018-02-22T02:45:11.500Z,-0.32
2018-02-22T02:47:37.795Z,-0.34
2018-02-22T02:50:04.031Z,-0.31
2018-02-22T02:52:30.251Z,-0.37
2018-02-22T02:54:56.508Z,-0.35
2018-02-22T02:57:22.841Z,-0.44
2018-02-22T02:59:49.138Z,-0.40
2018-02-22T03:02:15.395Z,-0.37
2018-02-22T03:04:41.625Z,-0.39
2018-02-22T03:07:07.855Z,-0.39
2018-02-22T03:09:34.153Z,-0.36
2018-02-22T03:12:00.408Z,-0.39
2018-02-22T03:14:26.628Z,-0.49
2018-02-22T03:16:53.539Z,-0.67
2018-02-22T03:19:19.775Z,-0.84
2018-02-22T03:21:46.003Z,-1.03
2018-02-22T03:24:12.255Z,-1.12
2018-02-22T03:26:38.497Z,-1.25
2018-02-22T03:29:04.876Z,-1.20
2018-02-22T03:31:31.141Z,-1.31
2018-02-22T03:33:57.368Z,-1.30
2018-02-22T03:36:23.692Z,-1.31
2018-02-22T03:38:49.987Z,-1.29
2018-02-22T03:41:16.223Z,-1.27
2018-02-22T03:43:42.472Z,-1.24
2018-02-22T03:46:08.721Z,-1.26
2018-02-22T03:48:35.014Z,-1.29
2018-02-22T03:51:01.247Z,-1.24
2018-02-22T03:53:27.503Z,-1.25
2018-02-22T03:55:53.743Z,-1.29
2018-02-22T03:58:20.036Z,-1.29
2018-02-22T04:00:46.300Z,-1.32
2018-02-22T04:03:12.540Z,-1.30
2018-02-22T04:05:38.848Z,-1.30
2018-02-22T04:08:05.204Z,-1.27
2018-02-22T04:10:31.428Z,-1.30
2018-02-22T04:12:57.679Z,-1.30
2018-02-22T04:15:24.009Z,-1.30
2018-02-22T04:17:50.339Z,-1.32
2018-02-22T04:20:16.578Z,-1.30
2018-02-22T04:22:42.852Z,-1.32
2018-02-22T04:25:09.118Z,-1.28
2018-02-22T04:27:35.468Z,-1.30
2018-02-22T04:30:01.734Z,-1.32
2018-02-22T04:32:27.997Z,-1.33
2018-02-22T04:34:54.263Z,-1.32
2018-02-22T04:37:20.694Z,-1.34
2018-02-22T04:39:46.927Z,-1.32
2018-02-22T04:42:13.155Z,-1.43
2018-02-22T04:44:39.413Z,-1.46
2018-02-22T04:47:05.838Z,-1.44
2018-02-22T04:49:32.071Z,-1.46
2018-02-22T04:51:58.338Z,-1.53
2018-02-22T04:54:24.586Z,-1.53
2018-02-22T04:56:50.844Z,-1.54
2018-02-22T04:59:17.108Z,-1.58
2018-02-22T05:01:43.331Z,-1.56
2018-02-22T05:04:09.599Z,-1.61
2018-02-22T05:06:35.852Z,-1.67
2018-02-22T05:09:02.152Z,-1.64
2018-02-22T05:11:28.370Z,-1.69
2018-02-22T05:13:54.643Z,-1.73
2018-02-22T05:16:20.871Z,-1.75
2018-02-22T05:18:47.092Z,-1.70
2018-02-22T05:21:13.354Z,-1.74
2018-02-22T05:23:39.582Z,-1.75
2018-02-22T05:26:05.807Z,-1.73
2018-02-22T05:28:32.068Z,-1.76
2018-02-22T05:30:58.308Z,-1.77
2018-02-22T05:33:24.520Z,-1.79
2018-02-22T05:35:50.795Z,-1.80
2018-02-22T05:38:17.015Z,-1.79
2018-02-22T05:40:43.256Z,-1.83
2018-02-22T05:43:09.516Z,-1.87
2018-02-22T05:45:35.757Z,-1.82
2018-02-22T05:48:01.988Z,-1.86
2018-02-22T05:50:28.235Z,-1.90
2018-02-22T05:52:54.467Z,-1.92
2018-02-22T05:55:20.699Z,-1.93
2018-02-22T05:57:46.962Z,-1.96
2018-02-22T06:00:13.201Z,-1.96
2018-02-22T06:02:39.446Z,-1.96
2018-02-22T06:05:05.740Z,-1.97
2018-02-22T06:07:31.973Z,-1.95
2018-02-22T06:09:58.196Z,-1.93
2018-02-22T06:12:24.448Z,-1.91
2018-02-22T06:14:50.684Z,-1.94
2018-02-22T06:17:16.916Z,-1.96
2018-02-22T06:19:43.172Z,-2.02
2018-02-22T06:22:09.407Z,-1.94
2018-02-22T06:24:35.634Z,-1.98
2018-02-22T06:27:01.888Z,-1.98
2018-02-22T06:29:28.120Z,-1.94
2018-02-22T06:31:54.349Z,-1.90
2018-02-22T06:34:20.615Z,-1.90
2018-02-22T06:36:46.908Z,-1.81
2018-02-22T06:39:13.140Z,-1.69
2018-02-22T06:41:39.402Z,-1.68
2018-02-22T06:44:05.663Z,-1.61
2018-02-22T06:46:31.912Z,-1.53
2018-02-22T06:48:58.167Z,-1.42
2018-02-22T06:51:24.416Z,-1.38
2018-02-22T06:53:50.642Z,-1.33
2018-02-22T06:56:16.904Z,-1.30
2018-02-22T06:58:43.132Z,-1.22
2018-02-22T07:01:09.380Z,-1.19
2018-02-22T07:03:35.636Z,-1.11
2018-02-22T07:06:01.878Z,-0.94
2018-02-22T07:08:28.124Z,-0.75
2018-02-22T07:10:54.380Z,-0.49
2018-02-22T07:13:20.613Z,-0.21
2018-02-22T07:15:46.831Z,-0.13
2018-02-22T07:18:13.085Z,0.07
2018-02-22T07:20:39.311Z,0.30
2018-02-22T07:23:16.650Z,0.46
2018-02-22T07:25:31.887Z,0.76
2018-02-22T07:27:58.121Z,1.12
2018-02-22T07:30:24.355Z,1.41
2018-02-22T07:32:50.603Z,1.53
2018-02-22T07:35:16.836Z,1.92
2018-02-22T07:37:43.076Z,2.27
2018-02-22T07:40:09.320Z,2.72
2018-02-22T07:42:35.556Z,3.08
2018-02-22T07:45:01.780Z,3.38
2018-02-22T07:47:28.028Z,3.91
2018-02-22T07:49:54.247Z,4.44
2018-02-22T07:52:20.460Z,4.99
2018-02-22T07:54:46.708Z,5.34
2018-02-22T07:57:12.932Z,5.80
2018-02-22T07:59:39.164Z,6.23
2018-02-22T08:02:05.412Z,6.52
2018-02-22T08:04:31.644Z,6.69
2018-02-22T08:06:57.847Z,6.52
2018-02-22T08:09:24.083Z,6.82
2018-02-22T08:11:50.296Z,7.07
2018-02-22T08:14:16.568Z,7.29
2018-02-22T08:16:42.826Z,7.47
2018-02-22T08:19:09.061Z,7.40
2018-02-22T08:21:35.276Z,8.13
2018-02-22T08:24:01.517Z,8.37
2018-02-22T08:26:27.772Z,8.33
2018-02-22T08:28:53.988Z,8.72
2018-02-22T08:31:20.236Z,9.16
2018-02-22T08:33:46.452Z,9.46
2018-02-22T08:36:12.679Z,9.75
2018-02-22T08:38:38.940Z,10.10
2018-02-22T08:41:05.202Z,10.80
2018-02-22T08:43:31.434Z,11.22
2018-02-22T08:45:57.696Z,11.76
2018-02-22T08:48:23.916Z,12.21
2018-02-22T08:50:50.152Z,12.51
2018-02-22T08:53:16.428Z,12.72
2018-02-22T08:55:42.660Z,12.89
2018-02-22T08:58:08.871Z,13.46
2018-02-22T09:00:35.147Z,13.20
2018-02-22T09:03:01.376Z,12.92
2018-02-22T09:05:27.604Z,13.16
2018-02-22T09:07:53.848Z,13.03
2018-02-22T09:10:20.064Z,13.02
2018-02-22T09:12:46.276Z,13.04
2018-02-22T09:15:12.528Z,13.44
2018-02-22T09:17:38.751Z,13.71
2018-02-22T09:20:04.983Z,13.37
2018-02-22T09:22:31.231Z,13.06
2018-02-22T09:24:57.464Z,13.16
2018-02-22T09:27:23.731Z,13.15
2018-02-22T09:29:49.988Z,13.10
2018-02-22T09:32:16.214Z,12.82
2018-02-22T09:34:42.431Z,12.89
2018-02-22T09:37:08.675Z,13.04
2018-02-22T09:39:34.895Z,12.96
2018-02-22T09:42:01.116Z,12.83
2018-02-22T09:44:27.355Z,12.49
2018-02-22T09:46:53.584Z,12.39
2018-02-22T09:49:19.800Z,12.68
2018-02-22T09:51:46.037Z,12.24
2018-02-22T09:54:12.259Z,12.15
2018-02-22T09:56:38.497Z,11.99
2018-02-22T09:59:04.754Z,11.89
2018-02-22T10:01:30.993Z,11.64
2018-02-22T10:03:57.215Z,11.92
2018-02-22T10:06:23.466Z,12.14
2018-02-22T10:08:49.692Z,12.15
2018-02-22T10:11:15.912Z,11.99
2018-02-22T10:13:42.173Z,11.76
2018-02-22T10:16:08.392Z,11.28
2018-02-22T10:18:34.605Z,11.27
2018-02-22T10:21:00.872Z,11.42
2018-02-22T10:23:27.111Z,11.82
2018-02-22T10:25:53.380Z,11.77
2018-02-22T10:28:19.664Z,11.70
2018-02-22T10:30:45.960Z,11.43
2018-02-22T10:33:12.191Z,11.78
2018-02-22T10:35:38.449Z,11.94
2018-02-22T10:38:04.663Z,11.68
2018-02-22T10:40:30.883Z,11.60
2018-02-22T10:42:57.129Z,11.97
2018-02-22T10:45:23.357Z,12.37
2018-02-22T10:47:49.576Z,12.44
2018-02-22T10:50:15.828Z,12.12
2018-02-22T10:52:42.067Z,11.88
2018-02-22T10:55:08.308Z,11.92
2018-02-22T10:57:34.552Z,12.66
2018-02-22T11:00:00.775Z,12.76
2018-02-22T11:02:33.220Z,11.86
2018-02-22T11:04:59.474Z,11.55
2018-02-22T11:07:25.701Z,11.71
2018-02-22T11:09:51.933Z,11.44
2018-02-22T11:12:18.179Z,11.08
2018-02-22T11:14:44.388Z,11.66
2018-02-22T11:17:10.607Z,12.50
2018-02-22T11:19:36.878Z,13.35
2018-02-22T11:22:03.117Z,14.35
2018-02-22T11:24:29.349Z,15.18
2018-02-22T11:26:55.628Z,15.99
2018-02-22T11:29:22.585Z,17.17
2018-02-22T11:31:48.816Z,18.56
2018-02-22T11:34:15.072Z,18.47
2018-02-22T11:36:41.296Z,18.71
2018-02-22T11:39:07.523Z,19.39
2018-02-22T11:41:33.807Z,20.45
2018-02-22T11:44:00.061Z,20.68
2018-02-22T11:46:26.311Z,20.61
2018-02-22T11:48:52.566Z,21.14
2018-02-22T11:51:18.808Z,21.41
2018-02-22T11:53:45.032Z,21.84
2018-02-22T11:56:11.277Z,21.96
2018-02-22T11:58:37.517Z,20.84
2018-02-22T12:01:03.758Z,18.87
2018-02-22T12:03:30.024Z,18.99
2018-02-22T12:05:56.265Z,19.85
2018-02-22T12:08:22.509Z,21.45
2018-02-22T12:10:48.777Z,22.65
2018-02-22T12:13:15.016Z,23.32
2018-02-22T12:15:41.227Z,23.68
2018-02-22T12:18:07.504Z,23.43
2018-02-22T12:20:33.724Z,24.21
2018-02-22T12:22:59.957Z,24.93
2018-02-22T12:25:26.219Z,23.73
2018-02-22T12:27:52.436Z,24.52
2018-02-22T12:30:18.690Z,25.39
2018-02-22T12:32:44.977Z,24.93
2018-02-22T12:35:11.203Z,25.19
2018-02-22T12:37:37.440Z,25.60
2018-02-22T12:40:03.733Z,25.90
2018-02-22T12:42:29.967Z,25.49
2018-02-22T12:44:56.193Z,25.64
2018-02-22T12:47:22.448Z,24.44
2018-02-22T12:49:48.754Z,24.66
2018-02-22T12:52:14.951Z,25.66
2018-02-22T12:54:41.199Z,25.25
2018-02-22T12:57:07.433Z,25.35
2018-02-22T12:59:33.650Z,25.13
2018-02-22T13:01:59.909Z,25.61
2018-02-22T13:04:26.124Z,25.67
2018-02-22T13:06:52.396Z,26.31
2018-02-22T13:09:18.652Z,26.38
2018-02-22T13:11:44.880Z,26.31
2018-02-22T13:14:11.104Z,26.72
2018-02-22T13:16:37.360Z,27.37
2018-02-22T13:19:03.584Z,26.83
2018-02-22T13:21:29.824Z,27.32
2018-02-22T13:23:56.086Z,26.54
2018-02-22T13:26:22.304Z,26.57
2018-02-22T13:28:48.549Z,26.06
2018-02-22T13:31:14.834Z,26.40
2018-02-22T13:33:53.231Z,26.60
2018-02-22T13:36:19.487Z,25.86
2018-02-22T13:38:58.008Z,25.13
2018-02-22T13:41:24.265Z,25.90
2018-02-22T13:44:02.667Z,26.63
2018-02-22T13:46:28.923Z,27.19
2018-02-22T13:49:07.378Z,27.19
2018-02-22T13:51:33.652Z,26.97
2018-02-22T13:53:59.896Z,27.00
2018-02-22T13:56:38.324Z,27.19
2018-02-22T13:59:04.536Z,25.62
2018-02-22T14:01:43.041Z,24.29
2018-02-22T14:04:09.259Z,24.06
2018-02-22T14:06:35.475Z,22.11
2018-02-22T14:09:01.720Z,22.13
2018-02-22T14:11:27.937Z,22.06
2018-02-22T14:13:54.161Z,20.99
2018-02-22T14:16:20.412Z,20.30
2018-02-22T14:18:46.635Z,19.11
2018-02-22T14:21:12.863Z,18.92
2018-02-22T14:23:39.119Z,17.58
2018-02-22T14:26:05.356Z,16.23
2018-02-22T14:28:31.587Z,15.39
2018-02-22T14:30:57.832Z,14.34
2018-02-22T14:33:24.076Z,14.28
2018-02-22T14:35:50.293Z,14.66
2018-02-22T14:38:16.551Z,13.88
2018-02-22T14:40:42.780Z,12.30
2018-02-22T14:43:09.026Z,12.62
2018-02-22T14:45:35.304Z,12.83
2018-02-22T14:48:02.153Z,12.63
2018-02-22T14:50:28.379Z,12.30
2018-02-22T14:52:54.633Z,12.35
2018-02-22T14:55:20.852Z,11.41
2018-02-22T14:57:47.071Z,10.01
2018-02-22T15:00:13.326Z,9.27
2018-02-22T15:02:39.549Z,9.91
2018-02-22T15:05:05.789Z,10.51
2018-02-22T15:07:32.087Z,10.98
2018-02-22T15:09:58.307Z,11.20
2018-02-22T15:12:24.532Z,11.38
2018-02-22T15:14:50.787Z,11.27
2018-02-22T15:17:17.051Z,11.23
2018-02-22T15:19:43.273Z,10.94
2018-02-22T15:22:09.533Z,10.74
2018-02-22T15:24:35.760Z,9.81
2018-02-22T15:27:01.998Z,8.81
2018-02-22T15:29:28.247Z,7.91
2018-02-22T15:31:54.468Z,7.42
2018-02-22T15:34:20.731Z,6.92
2018-02-22T15:36:46.972Z,6.58
2018-02-22T15:39:13.215Z,6.26
2018-02-22T15:41:39.447Z,6.00
2018-02-22T15:44:05.756Z,5.85
2018-02-22T15:46:32.052Z,5.58
2018-02-22T15:48:58.244Z,5.49
2018-02-22T15:51:24.489Z,5.22
2018-02-22T15:53:50.737Z,5.10
2018-02-22T15:56:16.945Z,4.97
2018-02-22T15:58:43.186Z,4.95
2018-02-22T16:01:09.408Z,4.86
2018-02-22T16:03:35.640Z,4.72
2018-02-22T16:06:01.896Z,4.71
2018-02-22T16:08:28.193Z,4.65
2018-02-22T16:10:54.458Z,4.53
2018-02-22T16:13:20.710Z,4.38
2018-02-22T16:15:46.940Z,4.27
2018-02-22T16:18:13.152Z,4.22
2018-02-22T16:20:39.420Z,4.21
2018-02-22T16:23:05.636Z,4.04
2018-02-22T16:25:31.880Z,4.00
2018-02-22T16:27:58.169Z,3.90
2018-02-22T16:30:24.397Z,3.85
2018-02-22T16:32:50.654Z,3.74
2018-02-22T16:35:16.961Z,3.70
2018-02-22T16:37:43.179Z,3.76
2018-02-22T16:40:09.408Z,3.69
2018-02-22T16:42:35.672Z,3.62
2018-02-22T16:45:01.918Z,3.53
2018-02-22T16:47:28.149Z,3.50
2018-02-22T16:49:54.436Z,3.46
2018-02-22T16:52:20.704Z,3.37
2018-02-22T16:54:46.929Z,3.31
2018-02-22T16:57:13.195Z,3.22
2018-02-22T16:59:39.436Z,3.19
2018-02-22T17:02:06.091Z,3.14
2018-02-22T17:04:32.360Z,3.15
2018-02-22T17:06:58.615Z,3.04
2018-02-22T17:09:24.943Z,3.02
2018-02-22T17:11:51.172Z,2.99
2018-02-22T17:14:17.467Z,2.96
2018-02-22T17:16:43.692Z,2.91
2018-02-22T17:19:10.960Z,2.92
2018-02-22T17:21:37.212Z,2.81
2018-02-22T17:24:03.498Z,2.81
2018-02-22T17:26:35.867Z,2.81
2018-02-22T17:29:08.098Z,2.76
2018-02-22T17:31:40.392Z,2.72
2018-02-22T17:34:06.677Z,2.63
2018-02-22T17:36:33.753Z,2.57
2018-02-22T17:39:01.071Z,2.50
2018-02-22T17:41:38.292Z,2.55
2018-02-22T17:44:04.624Z,2.46
2018-02-22T17:46:30.895Z,2.45
2018-02-22T17:48:57.191Z,2.39
2018-02-22T17:51:23.500Z,2.37
2018-02-22T17:53:49.720Z,2.39
2018-02-22T17:56:16.005Z,2.32
2018-02-22T17:58:42.304Z,2.26
2018-02-22T18:01:08.588Z,2.24
2018-02-22T18:03:34.878Z,2.26
2018-02-22T18:06:01.180Z,2.28
2018-02-22T18:08:27.458Z,2.19
2018-02-22T18:10:53.731Z,2.17
2018-02-22T18:13:19.998Z,2.19
2018-02-22T18:15:46.265Z,2.17
2018-02-22T18:18:12.572Z,2.13
2018-02-22T18:20:38.848Z,2.10
2018-02-22T18:23:05.244Z,2.08
2018-02-22T18:25:31.532Z,2.11
2018-02-22T18:27:57.835Z,2.02
2018-02-22T18:30:24.115Z,2.03
2018-02-22T18:32:50.347Z,2.08
2018-02-22T18:35:16.628Z,1.98
2018-02-22T18:37:49.004Z,1.95
2018-02-22T18:40:21.329Z,1.96
2018-02-22T18:42:49.612Z,1.89
2018-02-22T18:45:15.866Z,1.93
2018-02-22T18:47:42.220Z,1.86
2018-02-22T18:50:08.551Z,1.87
2018-02-22T18:52:34.815Z,1.93
2018-02-22T18:55:01.110Z,1.90
2018-02-22T18:57:27.352Z,1.88
2018-02-22T18:59:53.577Z,1.90
2018-02-22T19:02:19.840Z,1.91
2018-02-22T19:04:46.120Z,1.89
2018-02-22T19:07:12.348Z,1.82
2018-02-22T19:09:38.612Z,1.83
2018-02-22T19:12:04.866Z,1.81
2018-02-22T19:14:31.096Z,1.78
2018-02-22T19:16:57.401Z,1.71
2018-02-22T19:19:23.644Z,1.56
2018-02-22T19:21:49.912Z,1.62
2018-02-22T19:24:16.183Z,1.60
2018-02-22T19:26:42.404Z,1.61
2018-02-22T19:29:08.643Z,1.60
2018-02-22T19:31:35.893Z,1.56
2018-02-22T19:34:02.135Z,1.50
2018-02-22T19:36:28.394Z,1.46
2018-02-22T19:38:54.681Z,1.41
2018-02-22T19:41:20.990Z,1.38
2018-02-22T19:43:47.315Z,1.41
2018-02-22T19:46:13.588Z,1.36
2018-02-22T19:48:39.823Z,1.34
2018-02-22T19:51:06.097Z,1.37
2018-02-22T19:53:32.375Z,1.36
2018-02-22T19:55:58.751Z,1.32
2018-02-22T19:58:25.069Z,1.28
2018-02-22T20:00:51.380Z,1.29
2018-02-22T20:03:17.733Z,1.27
2018-02-22T20:05:43.976Z,1.24
2018-02-22T20:08:10.288Z,1.21
2018-02-22T20:10:36.588Z,1.16
2018-02-22T20:13:02.850Z,1.12
2018-02-22T20:15:29.149Z,1.15
2018-02-22T20:17:55.404Z,1.15
2018-02-22T20:20:21.680Z,1.15
2018-02-22T20:22:47.933Z,1.09
2018-02-22T20:25:14.183Z,1.14
2018-02-22T20:27:40.432Z,1.07
2018-02-22T20:30:06.702Z,1.01
2018-02-22T20:32:32.939Z,1.02
2018-02-22T20:34:59.186Z,1.03
2018-02-22T20:37:25.868Z,1.03
2018-02-22T20:39:52.174Z,0.98
2018-02-22T20:42:18.641Z,0.98
2018-02-22T20:44:44.884Z,0.89
2018-02-22T20:47:11.155Z,0.86
2018-02-22T20:49:37.549Z,0.85
2018-02-22T20:52:04.670Z,0.84
2018-02-22T20:54:31.248Z,0.84
2018-02-22T20:56:57.591Z,0.80
2018-02-22T20:59:23.911Z,0.77
2018-02-22T21:01:50.164Z,0.77
2018-02-22T21:04:17.296Z,0.78
2018-02-22T21:06:43.911Z,0.74
2018-02-22T21:09:10.138Z,0.75
2018-02-22T21:11:36.369Z,0.67
2018-02-22T21:14:02.647Z,0.61
2018-02-22T21:16:28.884Z,0.65
2018-02-22T21:18:55.140Z,0.65
2018-02-22T21:21:21.404Z,0.56
2018-02-22T21:23:47.654Z,0.56
2018-02-22T21:26:13.893Z,0.60
2018-02-22T21:28:40.225Z,0.52
2018-02-22T21:31:06.531Z,0.49
2018-02-22T21:33:33.977Z,0.46
2018-02-22T21:36:00.296Z,0.47
2018-02-22T21:38:26.560Z,0.40
2018-02-22T21:40:52.812Z,0.34
2018-02-22T21:43:19.085Z,0.32
2018-02-22T21:45:45.463Z,0.30
2018-02-22T21:48:11.725Z,0.29
2018-02-22T21:50:37.988Z,0.25
2018-02-22T21:53:04.232Z,0.17
2018-02-22T21:55:30.496Z,0.16
2018-02-22T21:57:56.759Z,0.19
2018-02-22T22:00:22.992Z,0.11
2018-02-22T22:02:49.232Z,0.12
2018-02-22T22:05:15.502Z,0.13
2018-02-22T22:07:41.889Z,0.04
2018-02-22T22:10:08.186Z,0.00
2018-02-22T22:12:34.484Z,0.02
2018-02-22T22:15:00.752Z,0.00
2018-02-22T22:17:26.993Z,0.00
2018-02-22T22:19:53.261Z,-0.02
2018-02-22T22:22:19.506Z,0.01
2018-02-22T22:24:45.740Z,-0.08
2018-02-22T22:27:12.027Z,-0.09
2018-02-22T22:29:38.260Z,-0.14
2018-02-22T22:32:04.622Z,-0.15
2018-02-22T22:34:30.915Z,-0.11
2018-02-22T22:36:57.142Z,-0.18
2018-02-22T22:39:23.364Z,-0.21
2018-02-22T22:41:49.743Z,-0.26
2018-02-22T22:44:16.064Z,-0.31
2018-02-22T22:46:42.577Z,-0.27
2018-02-22T22:49:08.865Z,-0.30
2018-02-22T22:51:35.272Z,-0.28
2018-02-22T22:54:01.552Z,-0.30
2018-02-22T22:56:27.855Z,-0.28
2018-02-22T22:58:54.078Z,-0.32
2018-02-22T23:01:20.316Z,-0.34
2018-02-22T23:03:46.712Z,-0.41
2018-02-22T23:06:13.935Z,-0.45
2018-02-22T23:08:40.172Z,-0.47
2018-02-22T23:11:06.454Z,-0.45
2018-02-22T23:13:32.697Z,-0.47
2018-02-22T23:15:58.949Z,-0.47
2018-02-22T23:18:25.211Z,-0.51
2018-02-22T23:20:51.447Z,-0.50
2018-02-22T23:23:17.884Z,-0.53
2018-02-22T23:25:44.361Z,-0.53
2018-02-22T23:28:10.636Z,-0.55
2018-02-22T23:30:36.871Z,-0.56
2018-02-22T23:33:03.204Z,-0.59
2018-02-22T23:35:29.451Z,-0.57
2018-02-22T23:37:55.797Z,-0.62
2018-02-22T23:40:32.029Z,-0.66
2018-02-22T23:42:58.283Z,-0.65
2018-02-22T23:45:24.647Z,-0.67
2018-02-22T23:47:51.278Z,-0.66
2018-02-22T23:50:17.707Z,-0.67
2018-02-22T23:52:44.199Z,-0.69
2018-02-22T23:55:10.517Z,-0.72
2018-02-22T23:57:36.989Z,-0.71
